Time;durP1;ratioP1;P1;durP2;ratioP2;P2;SDS_P1;SDS_P2;PMS_P1;PMS_P2;Temp;Humidity;BMP_temperature;BMP_pressure;BME280_temperature;BME280_humidity;BME280_pressure;Samples;Min_cycle;Max_cycle;Signal;HPM_P1;HPM_P2
2020/12/16 00:00:31;;;;;;;23.27;14.67;;;4.70;99.90;;;;;;5071899;28;20982;-54
2020/12/16 00:02:58;;;;;;;23.73;14.27;;;4.60;99.90;;;;;;5072812;28;20451;-54
2020/12/16 00:05:24;;;;;;;23.83;14.10;;;4.50;99.90;;;;;;5072462;28;20443;-54
2020/12/16 00:07:51;;;;;;;23.80;13.67;;;4.40;99.90;;;;;;5072350;28;20451;-54
2020/12/16 00:10:17;;;;;;;23.90;14.37;;;4.50;99.90;;;;;;5071901;28;20530;-54
2020/12/16 00:12:45;;;;;;;30.90;14.63;;;4.40;99.90;;;;;;5072574;28;20447;-54
2020/12/16 00:15:12;;;;;;;22.03;13.80;;;4.30;99.90;;;;;;5072788;28;20944;-54
2020/12/16 00:17:38;;;;;;;23.53;14.20;;;4.30;99.90;;;;;;5072009;28;20952;-53
2020/12/16 00:20:06;;;;;;;20.03;13.00;;;4.40;99.90;;;;;;5069146;28;20479;-54
2020/12/16 00:22:37;;;;;;;22.97;13.30;;;4.40;99.90;;;;;;5072346;28;20466;-54
2020/12/16 00:25:04;;;;;;;24.27;13.83;;;4.50;99.90;;;;;;5066610;28;20462;-53
2020/12/16 00:27:31;;;;;;;28.13;15.30;;;4.50;99.90;;;;;;5067883;28;20443;-53
2020/12/16 00:29:58;;;;;;;22.90;14.10;;;4.50;99.90;;;;;;5070310;28;20465;-53
2020/12/16 00:32:25;;;;;;;23.63;14.03;;;4.50;99.90;;;;;;5071089;28;20490;-53
2020/12/16 00:34:51;;;;;;;21.93;13.03;;;4.60;99.90;;;;;;5071632;28;20549;-54
2020/12/16 00:37:18;;;;;;;22.23;13.70;;;4.60;99.90;;;;;;5070976;28;20453;-53
2020/12/16 00:39:44;;;;;;;22.50;14.43;;;4.60;99.90;;;;;;5070828;28;20469;-54
2020/12/16 00:42:11;;;;;;;25.53;14.87;;;4.50;99.90;;;;;;5069885;28;20447;-54
2020/12/16 00:44:38;;;;;;;27.50;15.87;;;4.40;99.90;;;;;;5070462;28;20496;-54
2020/12/16 00:47:06;;;;;;;23.80;15.60;;;4.60;99.90;;;;;;5071415;28;20451;-53
2020/12/16 00:49:32;;;;;;;24.87;15.70;;;4.50;99.90;;;;;;5070832;28;20467;-54
2020/12/16 00:51:59;;;;;;;23.67;14.70;;;4.50;99.90;;;;;;5071121;28;20486;-53
2020/12/16 00:54:25;;;;;;;23.20;14.07;;;4.20;99.90;;;;;;5066471;28;20453;-53
2020/12/16 00:56:52;;;;;;;20.20;13.30;;;4.20;99.90;;;;;;5070941;28;20846;-53
2020/12/16 00:59:18;;;;;;;21.87;14.10;;;4.20;99.90;;;;;;5069614;28;20493;-53
2020/12/16 01:01:45;;;;;;;23.63;13.87;;;4.10;99.90;;;;;;5071127;28;20469;-54
2020/12/16 01:04:13;;;;;;;23.53;14.17;;;4.00;99.90;;;;;;5070487;28;20985;-53
2020/12/16 01:06:39;;;;;;;24.93;13.77;;;3.90;99.90;;;;;;5070995;28;20456;-53
2020/12/16 01:09:06;;;;;;;23.07;13.80;;;4.00;99.90;;;;;;5069837;28;20466;-53
2020/12/16 01:11:35;;;;;;;22.73;13.30;;;3.80;99.90;;;;;;5071065;28;20475;-53
2020/12/16 01:14:03;;;;;;;19.90;13.30;;;3.90;99.90;;;;;;5070784;28;20457;-54
2020/12/16 01:16:34;;;;;;;19.90;12.90;;;4.10;99.90;;;;;;5071043;28;20456;-54
2020/12/16 01:19:01;;;;;;;21.17;12.90;;;4.10;99.90;;;;;;5069902;28;20451;-54
2020/12/16 01:21:28;;;;;;;21.63;12.07;;;4.10;99.90;;;;;;5070845;28;20451;-54
2020/12/16 01:23:55;;;;;;;24.67;13.93;;;4.10;99.90;;;;;;5070685;28;20446;-53
2020/12/16 01:26:21;;;;;;;22.27;13.70;;;4.00;99.90;;;;;;5071206;28;20564;-53
2020/12/16 01:28:48;;;;;;;19.67;12.57;;;4.00;99.90;;;;;;5070095;28;20497;-52
2020/12/16 01:31:14;;;;;;;21.10;13.30;;;4.00;99.90;;;;;;5070367;28;20862;-54
2020/12/16 01:33:41;;;;;;;23.87;13.60;;;4.00;99.90;;;;;;5073235;28;20880;-53
2020/12/16 01:36:07;;;;;;;22.37;13.90;;;3.90;99.90;;;;;;5070321;28;20484;-53
2020/12/16 01:38:35;;;;;;;20.57;13.67;;;3.90;99.90;;;;;;5070511;28;20447;-54
2020/12/16 01:41:06;;;;;;;20.73;13.30;;;3.90;99.90;;;;;;5070165;28;20463;-53
2020/12/16 01:43:36;;;;;;;18.60;12.10;;;3.90;99.90;;;;;;5071314;28;20453;-54
2020/12/16 01:46:04;;;;;;;21.53;12.97;;;3.90;99.90;;;;;;5070286;28;20548;-53
2020/12/16 01:48:31;;;;;;;22.30;13.50;;;3.90;99.90;;;;;;5070597;28;20446;-54
2020/12/16 01:50:57;;;;;;;22.30;13.23;;;3.80;99.90;;;;;;5070161;28;20478;-53
2020/12/16 01:53:28;;;;;;;20.33;13.30;;;3.90;99.90;;;;;;5070066;28;20447;-54
2020/12/16 01:55:58;;;;;;;26.80;14.37;;;3.80;99.90;;;;;;5070408;28;21036;-54
2020/12/16 01:58:26;;;;;;;23.30;13.63;;;3.80;99.90;;;;;;5070564;28;20450;-53
2020/12/16 02:00:54;;;;;;;22.93;14.40;;;3.70;99.90;;;;;;5072170;28;20482;-54
2020/12/16 02:03:22;;;;;;;26.40;15.20;;;3.70;99.90;;;;;;5070357;28;20458;-54
2020/12/16 02:05:53;;;;;;;24.97;14.70;;;3.60;99.90;;;;;;5070502;28;20451;-53
2020/12/16 02:08:20;;;;;;;24.87;15.20;;;3.70;99.90;;;;;;5070143;28;20447;-54
2020/12/16 02:10:48;;;;;;;23.77;14.60;;;3.60;99.90;;;;;;5072839;28;21048;-53
2020/12/16 02:13:15;;;;;;;24.80;14.63;;;3.40;99.90;;;;;;5074784;28;20462;-53
2020/12/16 02:15:42;;;;;;;24.93;15.33;;;3.50;99.90;;;;;;5073991;28;20458;-53
2020/12/16 02:18:09;;;;;;;24.87;14.43;;;3.50;99.90;;;;;;5073382;28;20450;-53
2020/12/16 02:20:36;;;;;;;27.07;15.03;;;3.60;99.90;;;;;;5069415;28;20510;-53
2020/12/16 02:23:08;;;;;;;25.40;14.67;;;3.60;99.90;;;;;;5074565;28;21002;-53
2020/12/16 02:25:36;;;;;;;24.40;14.83;;;3.50;99.90;;;;;;5074686;28;20540;-54
2020/12/16 02:28:03;;;;;;;27.80;15.77;;;3.40;99.90;;;;;;5074078;28;20447;-54
2020/12/16 02:30:29;;;;;;;27.33;15.17;;;3.30;99.90;;;;;;5070961;28;20467;-54
2020/12/16 02:32:56;;;;;;;33.30;16.60;;;3.30;99.90;;;;;;5073968;28;20986;-53
2020/12/16 02:35:22;;;;;;;32.30;17.10;;;3.50;99.90;;;;;;5074451;28;20446;-53
2020/12/16 02:37:49;;;;;;;37.20;17.00;;;3.60;99.90;;;;;;5073880;28;20808;-53
2020/12/16 02:40:15;;;;;;;33.37;17.53;;;3.60;99.90;;;;;;5074036;28;20476;-54
2020/12/16 02:42:43;;;;;;;33.77;17.90;;;3.60;99.90;;;;;;5073866;28;20817;-53
2020/12/16 02:45:09;;;;;;;31.40;17.13;;;3.70;99.90;;;;;;5075803;28;20474;-53
2020/12/16 02:47:36;;;;;;;36.03;17.90;;;3.70;99.90;;;;;;5081823;28;20450;-54
2020/12/16 02:50:03;;;;;;;36.07;18.10;;;3.70;99.90;;;;;;5080446;28;20463;-54
2020/12/16 02:52:29;;;;;;;37.70;17.60;;;3.70;99.90;;;;;;5082325;28;20564;-54
2020/12/16 02:54:56;;;;;;;33.90;17.33;;;3.80;99.90;;;;;;5082745;28;20447;-54
2020/12/16 02:57:22;;;;;;;32.80;16.70;;;3.80;99.90;;;;;;5081663;28;21021;-54
2020/12/16 02:59:57;;;;;;;26.80;15.70;;;3.80;99.90;;;;;;5079717;28;20467;-54
2020/12/16 03:02:24;;;;;;;33.10;17.00;;;3.80;99.90;;;;;;5073075;28;20511;-54
2020/12/16 03:04:51;;;;;;;29.47;15.57;;;3.80;99.90;;;;;;5073907;28;20500;-54
2020/12/16 03:07:18;;;;;;;31.73;16.33;;;3.80;99.90;;;;;;5073485;28;20839;-54
2020/12/16 03:09:44;;;;;;;34.77;17.83;;;3.80;99.90;;;;;;5073067;28;20466;-54
2020/12/16 03:12:11;;;;;;;39.50;17.40;;;3.80;99.90;;;;;;5073095;28;20479;-53
2020/12/16 03:14:38;;;;;;;33.20;16.97;;;3.70;99.90;;;;;;5073281;28;20521;-54
2020/12/16 03:17:05;;;;;;;29.10;15.00;;;3.60;99.90;;;;;;5072863;28;20442;-53
2020/12/16 03:19:31;;;;;;;31.87;16.73;;;3.70;99.90;;;;;;5071469;28;20470;-53
2020/12/16 03:21:58;;;;;;;36.87;18.33;;;3.70;99.90;;;;;;5072157;28;20504;-54
2020/12/16 03:24:24;;;;;;;36.83;18.37;;;3.40;99.90;;;;;;5073395;28;20940;-53
2020/12/16 03:26:51;;;;;;;36.43;18.10;;;3.30;99.90;;;;;;5072868;28;20982;-53
2020/12/16 03:29:17;;;;;;;43.07;19.13;;;3.20;99.90;;;;;;5072970;28;20466;-54
2020/12/16 03:31:44;;;;;;;36.83;18.10;;;3.20;99.90;;;;;;5073775;28;20490;-53
2020/12/16 03:34:11;;;;;;;32.40;15.63;;;3.30;99.90;;;;;;5073222;28;20875;-53
2020/12/16 03:36:38;;;;;;;33.93;16.87;;;3.40;99.90;;;;;;5072747;28;20458;-54
2020/12/16 03:39:05;;;;;;;31.80;16.87;;;3.50;99.90;;;;;;5072870;28;20516;-54
2020/12/16 03:41:32;;;;;;;37.07;18.20;;;3.60;99.90;;;;;;5072975;28;20817;-53
2020/12/16 03:43:58;;;;;;;39.23;18.73;;;3.60;99.90;;;;;;5071305;28;20525;-53
2020/12/16 03:46:25;;;;;;;33.60;17.53;;;3.50;99.90;;;;;;5073279;28;20447;-53
2020/12/16 03:48:51;;;;;;;38.40;18.97;;;3.50;99.90;;;;;;5072115;28;20947;-54
2020/12/16 03:51:19;;;;;;;35.03;18.87;;;3.50;99.90;;;;;;5072828;28;20508;-53
2020/12/16 03:53:45;;;;;;;31.93;16.80;;;3.50;99.90;;;;;;5072455;28;20552;-53
2020/12/16 03:56:13;;;;;;;32.40;17.23;;;3.60;99.90;;;;;;5072686;28;20864;-54
2020/12/16 03:58:41;;;;;;;36.47;17.40;;;3.60;99.90;;;;;;5071622;28;20454;-53
2020/12/16 04:01:09;;;;;;;30.47;15.97;;;3.50;99.90;;;;;;5072691;28;20467;-53
2020/12/16 04:03:36;;;;;;;29.63;15.60;;;3.50;99.90;;;;;;5072308;28;20447;-53
2020/12/16 04:06:06;;;;;;;30.67;16.17;;;3.60;99.90;;;;;;5072787;28;20450;-53
2020/12/16 04:08:33;;;;;;;44.43;15.90;;;3.70;99.90;;;;;;5072276;28;20983;-53
2020/12/16 04:10:59;;;;;;;33.87;16.50;;;3.70;99.90;;;;;;5071640;28;20479;-53
2020/12/16 04:13:26;;;;;;;31.73;16.20;;;3.60;99.90;;;;;;5072377;28;20447;-53
2020/12/16 04:15:52;;;;;;;32.47;16.83;;;3.60;99.90;;;;;;5071067;28;21006;-54
2020/12/16 04:18:19;;;;;;;30.73;16.60;;;3.60;99.90;;;;;;5072160;28;20452;-53
2020/12/16 04:20:45;;;;;;;28.60;15.77;;;3.60;99.90;;;;;;5095028;22;20856;-47
2020/12/16 04:23:12;;;;;;;33.87;16.53;;;3.60;99.90;;;;;;5071942;28;20447;-47
2020/12/16 04:25:40;;;;;;;30.07;15.93;;;3.70;99.90;;;;;;5071712;28;20450;-47
2020/12/16 04:28:06;;;;;;;34.17;17.77;;;3.70;99.90;;;;;;5071896;28;20847;-47
2020/12/16 04:30:33;;;;;;;35.73;16.80;;;3.70;99.90;;;;;;5071375;28;20995;-47
2020/12/16 04:32:59;;;;;;;32.83;16.20;;;3.60;99.90;;;;;;5070887;28;20478;-47
2020/12/16 04:35:27;;;;;;;31.53;15.40;;;3.60;99.90;;;;;;5071844;28;20534;-47
2020/12/16 04:37:54;;;;;;;29.17;15.30;;;3.70;99.90;;;;;;5071349;28;20831;-47
2020/12/16 04:40:21;;;;;;;29.73;15.50;;;3.80;99.90;;;;;;5071324;28;20994;-47
2020/12/16 04:43:01;;;;;;;33.37;17.20;;;3.90;99.90;;;;;;5069860;28;20454;-47
2020/12/16 04:45:28;;;;;;;35.37;17.80;;;3.90;99.90;;;;;;5071393;28;20521;-47
2020/12/16 04:47:55;;;;;;;35.27;16.20;;;3.90;99.90;;;;;;5071641;28;20982;-47
2020/12/16 04:50:22;;;;;;;36.97;15.80;;;4.00;99.90;;;;;;5070968;28;20470;-47
2020/12/16 04:52:50;;;;;;;41.90;17.90;;;4.00;99.90;;;;;;5071255;28;20876;-47
2020/12/16 04:55:17;;;;;;;40.90;18.10;;;4.10;99.90;;;;;;5071176;28;20443;-47
2020/12/16 04:57:49;;;;;;;45.07;18.13;;;4.10;99.90;;;;;;5069823;28;20956;-47
2020/12/16 05:00:17;;;;;;;40.47;18.07;;;4.10;99.90;;;;;;5070486;28;20478;-47
2020/12/16 05:02:51;;;;;;;39.93;16.80;;;4.20;99.90;;;;;;5070333;28;20458;-47
2020/12/16 05:05:17;;;;;;;38.03;17.90;;;4.30;99.90;;;;;;5064279;28;20447;-47
2020/12/16 05:07:44;;;;;;;33.53;17.37;;;4.30;99.90;;;;;;5052824;28;20447;-47
2020/12/16 05:10:10;;;;;;;39.20;17.77;;;4.20;99.90;;;;;;5055755;28;20581;-47
2020/12/16 05:12:37;;;;;;;37.13;17.30;;;4.10;99.90;;;;;;5068933;28;20480;-47
2020/12/16 05:15:04;;;;;;;31.47;15.00;;;4.10;99.90;;;;;;5057499;28;20454;-47
2020/12/16 05:17:31;;;;;;;34.07;16.43;;;4.10;99.90;;;;;;5054993;28;20827;-47
2020/12/16 05:19:57;;;;;;;32.43;16.90;;;4.10;99.90;;;;;;5053610;28;20479;-47
2020/12/16 05:22:28;;;;;;;28.43;14.70;;;4.40;99.90;;;;;;5051333;28;20446;-47
2020/12/16 05:24:56;;;;;;;31.33;15.33;;;4.30;99.90;;;;;;5051799;28;20436;-47
2020/12/16 05:27:25;;;;;;;27.40;15.20;;;4.10;99.90;;;;;;5068126;28;20979;-47
2020/12/16 05:29:53;;;;;;;28.07;14.57;;;4.10;99.90;;;;;;5069274;28;20463;-47
2020/12/16 05:32:22;;;;;;;28.50;14.70;;;4.10;99.90;;;;;;5061346;28;20532;-47
2020/12/16 05:34:50;;;;;;;31.53;16.17;;;4.20;99.90;;;;;;5051338;28;20995;-47
2020/12/16 05:37:28;;;;;;;42.10;18.73;;;4.10;99.90;;;;;;5050860;28;20448;-47
2020/12/16 05:39:56;;;;;;;37.80;17.20;;;4.20;99.90;;;;;;5053554;28;20476;-47
2020/12/16 05:42:24;;;;;;;41.63;17.80;;;4.20;99.90;;;;;;5050831;28;20811;-47
2020/12/16 05:44:51;;;;;;;34.43;17.50;;;4.10;99.90;;;;;;5050250;28;20926;-47
2020/12/16 05:47:17;;;;;;;45.77;19.23;;;4.00;99.90;;;;;;5068420;28;20508;-47
2020/12/16 05:49:44;;;;;;;40.17;17.60;;;4.10;99.90;;;;;;5052880;28;20464;-47
2020/12/16 05:52:11;;;;;;;31.70;17.77;;;4.20;99.90;;;;;;5067968;28;20475;-47
2020/12/16 05:54:38;;;;;;;36.23;17.60;;;4.20;99.90;;;;;;5069874;28;20492;-47
2020/12/16 05:57:14;;;;;;;34.13;18.57;;;4.20;99.90;;;;;;5069293;28;20450;-47
2020/12/16 05:59:42;;;;;;;37.17;17.73;;;4.20;99.90;;;;;;5051304;28;20478;-47
2020/12/16 06:02:08;;;;;;;37.03;18.07;;;4.20;99.90;;;;;;5050550;28;20455;-47
2020/12/16 06:04:36;;;;;;;38.50;18.67;;;4.20;99.90;;;;;;5054620;28;20452;-47
2020/12/16 06:07:03;;;;;;;47.73;17.90;;;4.20;99.90;;;;;;5050614;28;20447;-47
2020/12/16 06:09:32;;;;;;;39.30;18.33;;;4.20;99.90;;;;;;5050331;28;20442;-47
2020/12/16 06:12:06;;;;;;;34.27;17.83;;;4.30;99.90;;;;;;5069491;28;20470;-47
2020/12/16 06:14:35;;;;;;;36.07;17.77;;;4.30;99.90;;;;;;5069903;28;20439;-47
2020/12/16 06:17:12;;;;;;;43.30;16.13;;;4.30;99.90;;;;;;5069930;28;20450;-47
2020/12/16 06:19:44;;;;;;;36.23;15.70;;;4.30;99.90;;;;;;5057304;28;20463;-46
2020/12/16 06:22:11;;;;;;;32.57;17.20;;;4.30;99.90;;;;;;5061832;28;20962;-47
2020/12/16 06:24:43;;;;;;;31.43;15.77;;;4.30;99.90;;;;;;5064325;28;20443;-47
2020/12/16 06:27:12;;;;;;;36.83;19.87;;;4.40;99.90;;;;;;5068024;28;20465;-47
2020/12/16 06:29:44;;;;;;;44.93;20.30;;;4.30;99.90;;;;;;5060290;28;20487;-47
2020/12/16 06:32:19;;;;;;;59.73;23.20;;;4.40;99.90;;;;;;5068677;28;21200;-47
2020/12/16 06:34:46;;;;;;;38.47;19.80;;;4.40;99.90;;;;;;5068792;28;20439;-47
2020/12/16 06:37:15;;;;;;;34.37;17.20;;;4.50;99.90;;;;;;5069166;28;20455;-47
2020/12/16 06:39:43;;;;;;;37.70;18.07;;;4.50;99.90;;;;;;5063946;28;20438;-47
2020/12/16 06:42:09;;;;;;;36.13;15.77;;;4.30;99.90;;;;;;5057889;28;20439;-47
2020/12/16 06:44:36;;;;;;;43.67;17.00;;;4.20;99.90;;;;;;5068352;28;20505;-47
2020/12/16 06:47:03;;;;;;;41.37;17.37;;;4.20;99.90;;;;;;5063352;28;20458;-47
2020/12/16 06:49:41;;;;;;;43.33;18.77;;;4.10;99.90;;;;;;5066906;28;20808;-47
2020/12/16 06:52:09;;;;;;;41.00;18.23;;;3.90;99.90;;;;;;5066497;28;20962;-47
2020/12/16 06:54:52;;;;;;;38.13;17.80;;;3.80;99.90;;;;;;5060419;28;20444;-47
2020/12/16 06:57:22;;;;;;;43.97;19.27;;;3.80;99.90;;;;;;5060599;28;20451;-47
2020/12/16 06:59:51;;;;;;;35.97;18.63;;;4.00;99.90;;;;;;5072852;28;20470;-47
2020/12/16 07:02:23;;;;;;;42.40;18.77;;;3.90;99.90;;;;;;5069257;28;20808;-47
2020/12/16 07:04:50;;;;;;;34.77;17.73;;;3.90;99.90;;;;;;5072599;28;20442;-47
2020/12/16 07:07:44;;;;;;;46.50;18.20;;;3.90;99.90;;;;;;5072514;28;20803;-47
2020/12/16 07:10:44;;;;;;;28.77;16.40;;;3.80;99.90;;;;;;5070561;28;20841;-48
2020/12/16 07:13:26;;;;;;;44.33;17.60;;;3.90;99.90;;;;;;5072092;28;20551;-48
2020/12/16 07:15:54;;;;;;;35.20;18.60;;;3.90;99.90;;;;;;5071825;28;20450;-47
2020/12/16 07:18:23;;;;;;;38.63;19.37;;;3.90;99.90;;;;;;5071892;28;20507;-48
2020/12/16 07:20:50;;;;;;;37.27;18.20;;;3.80;99.90;;;;;;5071960;28;20474;-48
2020/12/16 07:23:17;;;;;;;41.97;19.90;;;3.80;99.90;;;;;;5072193;28;20446;-48
2020/12/16 07:25:47;;;;;;;32.03;17.17;;;3.80;99.90;;;;;;5070624;28;20956;-48
2020/12/16 07:28:13;;;;;;;34.20;18.40;;;3.80;99.90;;;;;;5072216;28;20952;-48
2020/12/16 07:30:50;;;;;;;36.23;17.43;;;3.90;99.90;;;;;;5064454;28;20471;-47
2020/12/16 07:33:17;;;;;;;33.93;16.27;;;4.10;99.90;;;;;;5068241;28;21005;-48
2020/12/16 07:35:47;;;;;;;33.40;18.53;;;4.10;99.90;;;;;;5070962;28;20446;-47
2020/12/16 07:38:14;;;;;;;35.33;17.77;;;3.90;99.90;;;;;;5064576;28;20917;-47
2020/12/16 07:40:42;;;;;;;41.27;18.40;;;4.10;99.90;;;;;;5056166;28;20987;-48
2020/12/16 07:43:11;;;;;;;33.43;17.17;;;4.20;99.90;;;;;;5071646;28;20803;-48
2020/12/16 07:45:38;;;;;;;37.13;17.13;;;4.30;99.90;;;;;;5071288;28;20454;-48
2020/12/16 07:48:05;;;;;;;32.17;17.47;;;4.10;99.90;;;;;;5066378;28;20450;-47
2020/12/16 07:50:32;;;;;;;29.23;16.93;;;3.90;99.90;;;;;;5069541;28;20555;-48
2020/12/16 07:52:58;;;;;;;31.03;16.00;;;4.10;99.90;;;;;;5052367;28;20480;-48
2020/12/16 07:55:25;;;;;;;31.90;17.00;;;4.00;99.90;;;;;;5052290;28;20449;-47
2020/12/16 07:57:52;;;;;;;36.10;17.77;;;3.90;99.90;;;;;;5052358;28;20436;-48
2020/12/16 08:00:23;;;;;;;32.03;16.30;;;3.80;99.90;;;;;;5051948;28;20463;-48
2020/12/16 08:02:51;;;;;;;32.40;16.70;;;3.80;99.90;;;;;;5054812;28;20489;-48
2020/12/16 08:05:18;;;;;;;27.33;16.20;;;3.70;99.90;;;;;;5054777;28;20444;-47
2020/12/16 08:07:44;;;;;;;29.40;16.80;;;3.80;99.90;;;;;;5057077;28;20527;-47
2020/12/16 08:10:11;;;;;;;23.53;14.30;;;4.00;99.90;;;;;;5063904;28;20468;-48
2020/12/16 08:12:40;;;;;;;28.57;16.33;;;4.20;99.90;;;;;;5070988;28;20483;-48
2020/12/16 08:15:09;;;;;;;25.67;14.80;;;4.20;99.90;;;;;;5051521;28;20517;-48
2020/12/16 08:17:40;;;;;;;23.57;13.53;;;4.30;99.90;;;;;;5051353;28;20443;-48
2020/12/16 08:20:15;;;;;;;25.53;15.03;;;4.10;99.90;;;;;;5055365;28;20545;-47
2020/12/16 08:22:42;;;;;;;25.80;14.77;;;4.10;99.90;;;;;;5051098;28;20439;-47
2020/12/16 08:25:10;;;;;;;25.57;14.70;;;4.00;99.90;;;;;;5056954;28;20454;-47
2020/12/16 08:27:38;;;;;;;24.67;13.97;;;4.20;99.90;;;;;;5071781;28;20455;-47
2020/12/16 08:30:07;;;;;;;23.07;13.90;;;4.50;99.90;;;;;;5070271;28;20845;-47
2020/12/16 08:32:42;;;;;;;26.37;14.80;;;4.30;99.90;;;;;;5071159;28;20514;-47
2020/12/16 08:35:17;;;;;;;25.93;14.83;;;4.40;99.90;;;;;;5070967;28;20474;-47
2020/12/16 08:37:48;;;;;;;26.00;14.53;;;4.40;99.90;;;;;;5070122;28;20443;-47
2020/12/16 08:40:16;;;;;;;24.83;14.77;;;4.60;99.90;;;;;;5070419;28;20466;-47
2020/12/16 08:42:42;;;;;;;25.47;14.40;;;4.70;99.90;;;;;;5071437;28;20451;-47
2020/12/16 08:45:10;;;;;;;22.47;12.90;;;4.90;99.90;;;;;;5070550;28;20831;-47
2020/12/16 08:47:38;;;;;;;22.43;14.30;;;5.00;99.90;;;;;;5071132;28;20459;-47
2020/12/16 08:50:11;;;;;;;21.70;13.77;;;5.10;99.90;;;;;;5070453;28;20475;-47
2020/12/16 08:52:43;;;;;;;21.83;12.83;;;5.20;99.90;;;;;;5059835;28;20497;-47
2020/12/16 08:55:17;;;;;;;21.03;13.20;;;5.30;99.90;;;;;;5071094;28;20443;-47
2020/12/16 08:57:55;;;;;;;23.77;14.13;;;5.30;99.90;;;;;;5070689;28;20450;-47
2020/12/16 09:00:39;;;;;;;19.87;13.13;;;5.50;99.90;;;;;;5070353;28;20478;-47
2020/12/16 09:03:08;;;;;;;22.20;13.57;;;5.70;99.90;;;;;;5070203;28;20492;-47
2020/12/16 09:05:37;;;;;;;20.10;13.20;;;5.90;99.90;;;;;;5070629;28;20442;-47
2020/12/16 09:08:14;;;;;;;19.10;13.10;;;6.00;99.90;;;;;;5070420;28;20995;-47
2020/12/16 09:10:42;;;;;;;17.50;11.70;;;6.00;99.90;;;;;;5070542;28;20577;-48
2020/12/16 09:13:10;;;;;;;16.17;11.60;;;6.30;99.90;;;;;;5071165;28;20904;-47
2020/12/16 09:15:37;;;;;;;19.90;12.30;;;6.40;99.90;;;;;;5070886;28;20470;-47
2020/12/16 09:18:04;;;;;;;21.80;12.30;;;6.50;99.90;;;;;;5070905;28;20447;-47
2020/12/16 09:20:32;;;;;;;20.23;13.53;;;6.30;99.90;;;;;;5069839;28;20506;-47
2020/12/16 09:22:58;;;;;;;18.57;12.00;;;6.20;99.90;;;;;;5071150;28;20444;-47
2020/12/16 09:25:25;;;;;;;20.67;13.30;;;6.30;99.90;;;;;;5070810;28;20553;-47
2020/12/16 09:27:53;;;;;;;25.30;14.20;;;6.40;99.90;;;;;;5070738;28;20523;-47
2020/12/16 09:30:32;;;;;;;23.07;13.70;;;6.50;99.90;;;;;;5070589;28;21012;-47
2020/12/16 09:33:10;;;;;;;22.13;13.37;;;6.40;99.90;;;;;;5070288;28;20996;-47
2020/12/16 09:35:38;;;;;;;21.23;12.70;;;6.10;99.90;;;;;;5070519;28;21064;-48
2020/12/16 09:38:15;;;;;;;21.60;13.90;;;6.00;99.90;;;;;;5068880;28;20986;-47
2020/12/16 09:40:42;;;;;;;23.07;12.90;;;6.30;99.90;;;;;;5070136;28;20854;-47
2020/12/16 09:43:10;;;;;;;20.87;13.37;;;6.20;99.90;;;;;;5069118;28;20449;-47
2020/12/16 09:45:38;;;;;;;23.27;15.03;;;6.30;99.90;;;;;;5069815;28;20496;-47
2020/12/16 09:48:06;;;;;;;22.20;13.03;;;6.10;99.90;;;;;;5070109;28;20533;-47
2020/12/16 09:50:34;;;;;;;21.30;13.30;;;6.10;99.90;;;;;;5049992;28;20471;-47
2020/12/16 09:53:03;;;;;;;23.47;13.83;;;6.20;99.90;;;;;;5049882;28;20475;-47
2020/12/16 09:55:30;;;;;;;21.83;13.70;;;6.20;99.90;;;;;;5052877;28;20431;-47
2020/12/16 09:58:01;;;;;;;25.20;14.23;;;6.20;99.90;;;;;;5069827;28;20457;-47
2020/12/16 10:00:28;;;;;;;18.70;12.90;;;6.30;99.90;;;;;;5068096;28;20478;-47
2020/12/16 10:02:59;;;;;;;22.53;13.90;;;6.50;99.90;;;;;;5068729;28;20458;-47
2020/12/16 10:05:26;;;;;;;22.87;14.07;;;6.70;99.90;;;;;;5068483;28;20446;-47
2020/12/16 10:07:53;;;;;;;27.33;15.33;;;6.90;99.90;;;;;;5068956;28;20450;-47
2020/12/16 10:10:22;;;;;;;21.43;13.20;;;7.00;99.90;;;;;;5068572;28;20451;-47
2020/12/16 10:12:49;;;;;;;20.17;12.57;;;7.50;99.90;;;;;;5060076;28;20479;-47
2020/12/16 10:15:16;;;;;;;18.57;12.33;;;7.80;99.90;;;;;;5061292;28;20517;-47
2020/12/16 10:17:43;;;;;;;19.47;13.10;;;8.10;99.90;;;;;;5062717;28;20442;-47
2020/12/16 10:20:11;;;;;;;17.87;12.43;;;8.40;99.90;;;;;;5084233;22;21547;-52
2020/12/16 10:22:38;;;;;;;17.63;11.70;;;8.30;99.90;;;;;;5069744;28;20495;-52
2020/12/16 10:25:05;;;;;;;17.83;10.60;;;8.50;99.90;;;;;;5068904;28;20530;-51
2020/12/16 10:27:33;;;;;;;16.93;10.30;;;8.90;99.90;;;;;;5069182;28;21192;-52
2020/12/16 10:30:00;;;;;;;19.00;10.97;;;9.20;99.90;;;;;;5069535;28;20443;-51
2020/12/16 10:32:26;;;;;;;18.87;13.20;;;9.20;99.90;;;;;;5072950;28;20525;-51
2020/12/16 10:34:53;;;;;;;18.47;12.07;;;9.30;99.90;;;;;;5073522;28;20450;-51
2020/12/16 10:37:21;;;;;;;15.87;11.23;;;9.20;99.90;;;;;;5071803;28;20451;-51
2020/12/16 10:39:47;;;;;;;16.33;11.73;;;8.80;99.90;;;;;;5073011;28;20450;-51
2020/12/16 10:42:14;;;;;;;17.03;11.30;;;8.60;99.90;;;;;;5073367;28;20442;-51
2020/12/16 10:44:41;;;;;;;16.50;11.90;;;8.70;99.90;;;;;;5073712;28;20446;-51
2020/12/16 10:47:08;;;;;;;18.10;11.60;;;8.50;99.90;;;;;;5074766;28;20476;-52
2020/12/16 10:49:35;;;;;;;15.40;10.43;;;8.20;99.90;;;;;;5073553;28;20442;-52
2020/12/16 10:52:05;;;;;;;17.57;11.40;;;8.30;99.90;;;;;;5073511;28;20564;-51
2020/12/16 10:54:32;;;;;;;17.87;11.17;;;8.30;99.90;;;;;;5073754;28;20538;-52
2020/12/16 10:57:00;;;;;;;16.63;11.33;;;8.20;99.90;;;;;;5073451;28;20530;-52
2020/12/16 10:59:29;;;;;;;11.93;9.27;;;8.30;99.90;;;;;;5072901;28;20453;-51
2020/12/16 11:01:56;;;;;;;15.80;10.33;;;8.20;99.90;;;;;;5072861;28;20474;-51
2020/12/16 11:04:23;;;;;;;17.97;8.90;;;8.30;99.90;;;;;;5072951;28;20446;-51
2020/12/16 11:06:51;;;;;;;12.93;9.63;;;8.30;99.90;;;;;;5070468;28;20454;-50
2020/12/16 11:09:19;;;;;;;16.13;10.30;;;8.50;99.90;;;;;;5068661;28;20508;-51
2020/12/16 11:11:47;;;;;;;14.80;10.10;;;8.60;99.90;;;;;;5071469;28;20512;-51
2020/12/16 11:14:13;;;;;;;13.30;8.80;;;8.40;99.90;;;;;;5067577;28;20522;-51
2020/12/16 11:16:41;;;;;;;13.90;10.60;;;8.40;99.90;;;;;;5071952;28;20968;-51
2020/12/16 11:19:10;;;;;;;14.13;9.70;;;8.50;99.90;;;;;;5071318;28;21035;-52
2020/12/16 11:21:38;;;;;;;13.67;9.53;;;8.60;99.90;;;;;;5071493;28;20475;-51
2020/12/16 11:24:08;;;;;;;14.47;9.97;;;8.60;99.90;;;;;;5069821;28;20450;-51
2020/12/16 11:26:37;;;;;;;14.10;10.00;;;8.70;99.90;;;;;;5071501;28;20458;-51
2020/12/16 11:29:06;;;;;;;14.97;10.20;;;8.70;99.90;;;;;;5071403;28;21031;-51
2020/12/16 11:31:37;;;;;;;13.47;10.27;;;8.80;99.90;;;;;;5072899;28;20466;-51
2020/12/16 11:34:08;;;;;;;12.37;8.63;;;8.80;99.90;;;;;;5085052;28;20454;-51
2020/12/16 11:36:36;;;;;;;11.90;8.77;;;8.90;99.90;;;;;;5068319;28;20831;-51
2020/12/16 11:39:03;;;;;;;16.17;8.07;;;9.20;99.90;;;;;;5071078;28;21623;-51
2020/12/16 11:41:30;;;;;;;10.43;8.27;;;9.30;99.90;;;;;;5070210;28;20458;-51
2020/12/16 11:43:56;;;;;;;10.27;7.93;;;9.50;99.90;;;;;;5070452;28;20447;-51
2020/12/16 11:46:23;;;;;;;10.67;8.40;;;9.50;99.90;;;;;;5070932;28;20442;-51
2020/12/16 11:48:49;;;;;;;9.10;7.13;;;9.50;99.90;;;;;;5070372;28;20820;-52
2020/12/16 11:51:17;;;;;;;8.50;7.53;;;9.60;99.90;;;;;;5069449;28;20462;-51
2020/12/16 11:53:43;;;;;;;9.87;7.30;;;9.70;99.90;;;;;;5051598;28;20490;-51
2020/12/16 11:56:09;;;;;;;9.63;7.40;;;9.70;99.90;;;;;;5052045;28;20447;-51
2020/12/16 11:58:36;;;;;;;8.97;6.70;;;9.80;99.90;;;;;;5052050;28;20444;-51
2020/12/16 12:01:02;;;;;;;7.73;6.70;;;9.80;99.90;;;;;;5051618;28;20459;-51
2020/12/16 12:03:29;;;;;;;8.97;6.97;;;9.60;99.90;;;;;;5051635;28;20444;-51
2020/12/16 12:05:55;;;;;;;10.27;7.00;;;9.60;99.90;;;;;;5051321;28;20469;-51
2020/12/16 12:08:23;;;;;;;13.03;7.80;;;9.50;99.90;;;;;;5051660;28;20451;-51
2020/12/16 12:10:49;;;;;;;10.73;7.73;;;9.60;99.90;;;;;;5051306;28;20563;-51
2020/12/16 12:13:17;;;;;;;12.50;8.07;;;9.70;99.90;;;;;;5051285;28;20855;-51
2020/12/16 12:15:44;;;;;;;10.00;7.57;;;9.90;99.90;;;;;;5051248;28;20455;-51
2020/12/16 12:18:10;;;;;;;12.87;8.23;;;9.80;99.90;;;;;;5051833;28;20962;-51
2020/12/16 12:20:37;;;;;;;10.50;7.33;;;9.80;99.90;;;;;;5055886;28;20922;-51
2020/12/16 12:23:03;;;;;;;8.97;7.30;;;9.80;99.90;;;;;;5069108;28;20932;-51
2020/12/16 12:25:31;;;;;;;9.73;7.60;;;9.90;99.90;;;;;;5070318;28;20443;-51
2020/12/16 12:27:57;;;;;;;8.80;6.70;;;9.80;99.90;;;;;;5069767;28;20486;-51
2020/12/16 12:30:24;;;;;;;12.77;6.80;;;9.80;99.90;;;;;;5069538;28;20523;-52
2020/12/16 12:32:50;;;;;;;9.20;7.10;;;9.90;99.90;;;;;;5066165;28;20479;-51
2020/12/16 12:35:16;;;;;;;10.43;7.47;;;9.80;99.90;;;;;;5070279;28;20863;-51
2020/12/16 12:37:43;;;;;;;13.13;7.93;;;10.00;99.90;;;;;;5069930;28;20439;-51
2020/12/16 12:40:09;;;;;;;9.93;6.77;;;9.90;99.90;;;;;;5070123;28;20465;-51
2020/12/16 12:42:37;;;;;;;11.50;7.00;;;10.00;99.90;;;;;;5070074;28;20997;-51